Time;durP1;ratioP1;P1;durP2;ratioP2;P2;SDS_P1;SDS_P2;PMS_P1;PMS_P2;Temp;Humidity;BMP_temperature;BMP_pressure;BME280_temperature;BME280_humidity;BME280_pressure;Samples;Min_cycle;Max_cycle;Signal;HPM_P1;HPM_P2
2023/10/20 00:01:04;;;;;;;13.38;6.75;;;;;;;;;;5074167;28;20390;-59
2023/10/20 00:03:32;;;;;;;12.40;6.50;;;;;;;;;;5074997;28;20040;-59
2023/10/20 00:05:59;;;;;;;12.30;6.45;;;;;;;;;;5087981;28;20036;-59
2023/10/20 00:08:27;;;;;;;14.02;6.60;;;;;;;;;;5085263;28;20036;-59
2023/10/20 00:11:03;;;;;;;12.98;6.57;;;;;;;;;;5094172;28;20660;-59
2023/10/20 00:13:32;;;;;;;10.95;6.80;;;;;;;;;;5094459;28;20098;-59
2023/10/20 00:16:00;;;;;;;12.50;6.43;;;;;;;;;;5090551;28;20059;-59
2023/10/20 00:18:28;;;;;;;13.30;6.30;;;;;;;;;;5094165;28;20064;-60
2023/10/20 00:20:55;;;;;;;12.75;6.80;;;;;;;;;;5089328;28;20139;-59
2023/10/20 00:23:23;;;;;;;14.35;7.13;;;;;;;;;;5072707;28;20044;-60
2023/10/20 00:25:51;;;;;;;20.13;7.13;;;;;;;;;;5077593;28;20099;-59
2023/10/20 00:28:19;;;;;;;13.15;6.43;;;;;;;;;;5093866;28;20050;-59
2023/10/20 00:30:46;;;;;;;15.70;6.95;;;;;;;;;;5087308;28;20036;-58
2023/10/20 00:33:14;;;;;;;12.77;6.53;;;;;;;;;;5092442;28;20052;-59
2023/10/20 00:35:42;;;;;;;15.38;7.20;;;;;;;;;;5092520;28;20489;-59
2023/10/20 00:38:10;;;;;;;16.38;7.82;;;;;;;;;;5093803;28;20123;-59
2023/10/20 00:40:45;;;;;;;18.42;7.00;;;;;;;;;;5077579;28;20045;-59
2023/10/20 00:43:13;;;;;;;13.73;7.03;;;;;;;;;;5072071;28;20084;-59
2023/10/20 00:45:41;;;;;;;14.95;7.90;;;;;;;;;;5072398;28;20427;-59
2023/10/20 00:48:09;;;;;;;15.75;7.68;;;;;;;;;;5093484;28;20044;-59
2023/10/20 00:50:36;;;;;;;15.98;8.00;;;;;;;;;;5092211;28;20046;-59
2023/10/20 00:53:04;;;;;;;15.98;8.63;;;;;;;;;;5092048;28;20040;-59
2023/10/20 00:55:32;;;;;;;13.73;8.25;;;;;;;;;;5090995;28;20046;-60
2023/10/20 00:57:59;;;;;;;16.23;8.10;;;;;;;;;;5092228;28;20150;-59
2023/10/20 01:00:27;;;;;;;13.35;7.85;;;;;;;;;;5091417;28;20151;-59
2023/10/20 01:02:54;;;;;;;15.75;8.00;;;;;;;;;;5089315;28;20403;-59
2023/10/20 01:05:22;;;;;;;12.85;7.50;;;;;;;;;;5092055;28;20649;-59
2023/10/20 01:07:50;;;;;;;15.32;8.18;;;;;;;;;;5072928;28;20132;-59
2023/10/20 01:10:18;;;;;;;15.85;8.13;;;;;;;;;;5071597;28;20068;-59
2023/10/20 01:12:45;;;;;;;15.10;8.40;;;;;;;;;;5091188;28;20044;-59
2023/10/20 01:15:15;;;;;;;17.05;8.57;;;;;;;;;;5091865;28;20135;-58
2023/10/20 01:17:42;;;;;;;14.88;8.45;;;;;;;;;;5091699;28;20040;-60
2023/10/20 01:20:11;;;;;;;16.63;8.77;;;;;;;;;;5093090;28;20081;-60
2023/10/20 01:22:39;;;;;;;20.33;9.75;;;;;;;;;;5091762;28;20456;-60
2023/10/20 01:25:07;;;;;;;15.13;8.23;;;;;;;;;;5075647;28;20137;-59
2023/10/20 01:27:35;;;;;;;16.23;8.95;;;;;;;;;;5071416;28;20049;-60
2023/10/20 01:30:03;;;;;;;17.25;8.68;;;;;;;;;;5072654;28;20056;-60
2023/10/20 01:32:30;;;;;;;16.15;8.45;;;;;;;;;;5071302;28;20051;-59
2023/10/20 01:34:58;;;;;;;18.95;8.88;;;;;;;;;;5078842;28;20047;-60
2023/10/20 01:37:26;;;;;;;20.95;8.63;;;;;;;;;;5091325;28;20131;-60
2023/10/20 01:39:53;;;;;;;16.52;9.32;;;;;;;;;;5091344;28;20044;-60
2023/10/20 01:42:21;;;;;;;18.10;9.43;;;;;;;;;;5075630;28;20045;-59
2023/10/20 01:44:48;;;;;;;17.45;9.05;;;;;;;;;;5071142;28;20098;-60
2023/10/20 01:47:16;;;;;;;14.27;9.35;;;;;;;;;;5089589;28;20110;-59
2023/10/20 01:49:43;;;;;;;19.95;9.18;;;;;;;;;;5087979;28;20045;-60
2023/10/20 01:52:11;;;;;;;17.73;9.63;;;;;;;;;;5076937;28;20075;-59
2023/10/20 01:54:40;;;;;;;16.40;8.93;;;;;;;;;;5083780;28;20402;-60
2023/10/20 01:57:09;;;;;;;16.67;8.82;;;;;;;;;;5076605;28;20040;-59
2023/10/20 01:59:36;;;;;;;18.88;8.95;;;;;;;;;;5071134;28;20060;-60
2023/10/20 02:02:04;;;;;;;22.48;9.77;;;;;;;;;;5054555;28;20052;-60
2023/10/20 02:04:31;;;;;;;14.05;8.85;;;;;;;;;;5070991;28;20044;-60
2023/10/20 02:06:59;;;;;;;14.45;8.30;;;;;;;;;;5070971;28;20037;-59
2023/10/20 02:09:27;;;;;;;15.20;8.73;;;;;;;;;;5070934;28;20044;-59
2023/10/20 02:11:58;;;;;;;17.52;9.20;;;;;;;;;;5070900;28;20043;-60
2023/10/20 02:14:25;;;;;;;15.35;9.40;;;;;;;;;;5072324;28;20041;-59
2023/10/20 02:16:54;;;;;;;15.93;9.80;;;;;;;;;;5070722;28;20036;-60
2023/10/20 02:19:22;;;;;;;19.20;9.43;;;;;;;;;;5070948;28;20083;-60
2023/10/20 02:21:51;;;;;;;17.92;9.70;;;;;;;;;;5070979;28;20062;-60
2023/10/20 02:24:18;;;;;;;18.17;9.75;;;;;;;;;;5081666;28;20433;-60
2023/10/20 02:26:46;;;;;;;17.40;10.18;;;;;;;;;;5072020;28;20060;-60
2023/10/20 02:29:14;;;;;;;20.05;10.07;;;;;;;;;;5070700;28;20056;-60
2023/10/20 02:31:43;;;;;;;17.10;9.52;;;;;;;;;;5088726;28;20137;-60
2023/10/20 02:34:11;;;;;;;21.30;10.00;;;;;;;;;;5091026;28;20423;-59
2023/10/20 02:36:39;;;;;;;14.45;9.40;;;;;;;;;;5092223;28;20064;-60
2023/10/20 02:39:06;;;;;;;17.80;9.13;;;;;;;;;;5090850;28;20047;-60
2023/10/20 02:41:34;;;;;;;18.77;9.32;;;;;;;;;;5090844;28;20127;-60
2023/10/20 02:44:01;;;;;;;18.05;10.35;;;;;;;;;;5090912;28;20410;-60
2023/10/20 02:46:30;;;;;;;17.35;9.23;;;;;;;;;;5093736;28;20396;-60
2023/10/20 02:48:58;;;;;;;16.52;10.00;;;;;;;;;;5094444;28;20071;-60
2023/10/20 02:51:26;;;;;;;19.80;9.65;;;;;;;;;;5088061;28;20052;-59
2023/10/20 02:53:53;;;;;;;16.05;10.05;;;;;;;;;;5075336;28;20169;-59
2023/10/20 02:56:23;;;;;;;15.68;9.27;;;;;;;;;;5075517;28;20043;-60
2023/10/20 02:58:51;;;;;;;19.42;10.18;;;;;;;;;;5075724;28;20063;-59
2023/10/20 03:01:20;;;;;;;21.67;10.60;;;;;;;;;;5083909;28;20079;-60
2023/10/20 03:03:48;;;;;;;17.42;10.27;;;;;;;;;;5087639;28;20490;-59
2023/10/20 03:06:16;;;;;;;21.20;10.10;;;;;;;;;;5055313;28;20049;-59
2023/10/20 03:08:44;;;;;;;18.52;9.90;;;;;;;;;;5053970;28;20048;-59
2023/10/20 03:11:12;;;;;;;38.35;11.30;;;;;;;;;;5058599;28;20049;-59
2023/10/20 03:13:40;;;;;;;17.63;9.52;;;;;;;;;;5075635;28;20040;-59
2023/10/20 03:16:07;;;;;;;18.50;10.65;;;;;;;;;;5093354;28;20048;-60
2023/10/20 03:18:35;;;;;;;21.30;9.98;;;;;;;;;;5082625;28;20053;-60
2023/10/20 03:21:03;;;;;;;21.92;9.93;;;;;;;;;;5073826;28;20040;-60
2023/10/20 03:23:32;;;;;;;16.98;10.02;;;;;;;;;;5085615;28;20119;-60
2023/10/20 03:26:00;;;;;;;17.85;11.00;;;;;;;;;;5088126;28;20062;-60
2023/10/20 03:28:28;;;;;;;21.98;10.38;;;;;;;;;;5073379;28;20036;-60
2023/10/20 03:30:55;;;;;;;18.52;9.88;;;;;;;;;;5081815;28;20722;-60
2023/10/20 03:33:23;;;;;;;20.55;10.75;;;;;;;;;;5095014;28;20089;-60
2023/10/20 03:36:01;;;;;;;20.08;10.27;;;;;;;;;;5093585;28;20558;-60
2023/10/20 03:38:28;;;;;;;20.25;10.77;;;;;;;;;;5094910;28;20402;-59
2023/10/20 03:41:06;;;;;;;23.67;11.65;;;;;;;;;;5089695;28;20090;-59
2023/10/20 03:43:35;;;;;;;20.83;11.02;;;;;;;;;;5076850;28;20043;-60
2023/10/20 03:46:04;;;;;;;24.13;11.40;;;;;;;;;;5074335;28;20044;-60
2023/10/20 03:48:33;;;;;;;22.85;11.93;;;;;;;;;;5073172;28;20136;-58
2023/10/20 03:51:05;;;;;;;23.30;11.73;;;;;;;;;;5074361;28;20135;-58
2023/10/20 03:53:46;;;;;;;24.77;11.82;;;;;;;;;;5072962;28;20129;-59
2023/10/20 03:56:18;;;;;;;24.08;12.05;;;;;;;;;;5072844;28;20049;-59
2023/10/20 03:58:46;;;;;;;22.70;11.55;;;;;;;;;;5072906;28;20040;-59
2023/10/20 04:01:14;;;;;;;24.50;12.23;;;;;;;;;;5086743;28;20401;-59
2023/10/20 04:03:45;;;;;;;28.70;12.95;;;;;;;;;;5078024;28;20067;-59
2023/10/20 04:06:13;;;;;;;27.02;13.02;;;;;;;;;;5082421;28;20047;-59
2023/10/20 04:08:41;;;;;;;30.80;13.13;;;;;;;;;;5074106;28;20041;-59
2023/10/20 04:11:09;;;;;;;25.55;12.57;;;;;;;;;;5072526;28;20044;-59
2023/10/20 04:13:36;;;;;;;25.50;13.13;;;;;;;;;;5072038;28;20043;-59
2023/10/20 04:16:13;;;;;;;29.88;14.52;;;;;;;;;;5071918;28;20048;-60
2023/10/20 04:18:42;;;;;;;30.58;15.82;;;;;;;;;;5071614;28;20068;-60
2023/10/20 04:21:12;;;;;;;30.15;14.07;;;;;;;;;;5074481;28;20056;-60
2023/10/20 04:23:40;;;;;;;32.85;15.70;;;;;;;;;;5089958;28;20128;-60
2023/10/20 04:26:21;;;;;;;30.02;14.82;;;;;;;;;;5086705;28;20032;-59
2023/10/20 04:29:35;;;;;;;32.45;15.20;;;;;;;;;;5093877;28;20105;-59
2023/10/20 04:43:34;;;;;;;38.38;16.05;;;;;;;;;;5074179;28;20048;-59
2023/10/20 04:51:28;;;;;;;40.90;16.92;;;;;;;;;;5072685;28;20486;-59
2023/10/20 04:54:02;;;;;;;43.80;16.73;;;;;;;;;;5072972;28;20117;-59
2023/10/20 04:56:37;;;;;;;52.37;18.30;;;;;;;;;;5073214;28;20048;-58
2023/10/20 04:59:22;;;;;;;;;;;;;;;;;;5073580;28;20419;-58
2023/10/20 05:01:58;;;;;;;44.65;16.10;;;;;;;;;;5073104;28;19921;-58
2023/10/20 05:04:28;;;;;;;;;;;;;;;;;;5073452;28;20044;-59
2023/10/20 05:07:05;;;;;;;36.72;13.73;;;;;;;;;;5073188;28;20016;-59
2023/10/20 05:09:35;;;;;;;46.85;15.05;;;;;;;;;;5072280;28;20049;-58
2023/10/20 05:12:03;;;;;;;48.30;17.80;;;;;;;;;;5072851;28;20040;-58
2023/10/20 05:14:30;;;;;;;48.17;15.30;;;;;;;;;;5072854;28;20036;-58
2023/10/20 05:16:58;;;;;;;43.97;15.30;;;;;;;;;;5072908;28;20041;-58
2023/10/20 05:19:31;;;;;;;43.28;13.95;;;;;;;;;;5072791;28;20051;-59
2023/10/20 05:22:00;;;;;;;33.45;12.85;;;;;;;;;;5072750;28;20036;-59
2023/10/20 05:24:28;;;;;;;30.73;13.13;;;;;;;;;;5072826;28;20482;-59
2023/10/20 05:26:55;;;;;;;27.45;12.18;;;;;;;;;;5072983;28;20120;-59
2023/10/20 05:29:23;;;;;;;30.80;12.77;;;;;;;;;;5071332;28;20048;-59
2023/10/20 05:31:50;;;;;;;33.13;11.32;;;;;;;;;;5072687;28;20044;-60
2023/10/20 05:34:18;;;;;;;33.72;12.98;;;;;;;;;;5071387;28;20037;-60
2023/10/20 05:36:45;;;;;;;30.35;12.32;;;;;;;;;;5072845;28;20246;-60
2023/10/20 05:39:13;;;;;;;28.35;13.68;;;;;;;;;;5072604;28;20037;-59
2023/10/20 05:41:43;;;;;;;43.60;14.07;;;;;;;;;;5072433;28;20040;-59
2023/10/20 05:44:11;;;;;;;33.08;14.20;;;;;;;;;;5071341;28;20476;-59
2023/10/20 05:46:41;;;;;;;38.42;14.68;;;;;;;;;;5072317;28;20560;-59
2023/10/20 05:49:08;;;;;;;41.10;16.38;;;;;;;;;;5072410;28;20040;-59
2023/10/20 05:51:36;;;;;;;30.58;14.13;;;;;;;;;;5071353;28;20533;-59
2023/10/20 05:54:04;;;;;;;33.97;15.88;;;;;;;;;;5072210;28;20397;-59
2023/10/20 05:56:31;;;;;;;33.30;16.85;;;;;;;;;;5072512;28;20037;-59
2023/10/20 05:58:59;;;;;;;33.42;16.13;;;;;;;;;;5072273;28;20037;-60
2023/10/20 06:01:26;;;;;;;38.10;17.17;;;;;;;;;;5072288;28;20110;-60
2023/10/20 06:03:54;;;;;;;31.65;17.23;;;;;;;;;;5072329;28;20273;-59
2023/10/20 06:06:22;;;;;;;36.75;16.10;;;;;;;;;;5070979;28;20048;-59
2023/10/20 06:08:49;;;;;;;31.73;16.20;;;;;;;;;;5072404;28;20041;-59
2023/10/20 06:11:17;;;;;;;32.70;16.08;;;;;;;;;;5072076;28;20040;-59
2023/10/20 06:13:44;;;;;;;30.20;15.63;;;;;;;;;;5071362;28;20106;-59
2023/10/20 06:16:12;;;;;;;34.75;15.93;;;;;;;;;;5072158;28;20123;-59
2023/10/20 06:18:41;;;;;;;30.25;15.43;;;;;;;;;;5072191;28;20060;-59
2023/10/20 06:21:16;;;;;;;26.92;15.55;;;;;;;;;;5074931;28;20044;-59
2023/10/20 06:23:44;;;;;;;;;;;;;;;;;;5076565;28;20033;-59
2023/10/20 06:26:12;;;;;;;37.50;16.35;;;;;;;;;;5076000;28;20378;-59
2023/10/20 06:28:43;;;;;;;30.17;14.98;;;;;;;;;;5075990;28;20055;-59
2023/10/20 06:34:09;;;;;;;25.17;14.43;;;;;;;;;;5076004;28;20077;-59
2023/10/20 06:36:38;;;;;;;26.08;13.80;;;;;;;;;;5075905;28;20036;-59
2023/10/20 06:39:13;;;;;;;28.65;14.82;;;;;;;;;;5075812;28;20048;-60
2023/10/20 06:41:41;;;;;;;24.63;14.05;;;;;;;;;;5075777;28;20063;-61
2023/10/20 06:44:18;;;;;;;24.17;13.20;;;;;;;;;;5074200;28;20098;-59
2023/10/20 06:46:45;;;;;;;28.08;13.07;;;;;;;;;;5075985;28;20435;-59
2023/10/20 06:49:18;;;;;;;27.25;14.77;;;;;;;;;;5075918;28;20043;-59
2023/10/20 06:51:47;;;;;;;24.48;14.07;;;;;;;;;;5074422;28;20105;-59
2023/10/20 06:54:16;;;;;;;57.45;16.17;;;;;;;;;;5075434;28;20051;-59
2023/10/20 06:56:44;;;;;;;45.30;14.52;;;;;;;;;;5075578;28;20045;-60
2023/10/20 06:59:15;;;;;;;26.35;12.63;;;;;;;;;;5075574;28;20068;-60
2023/10/20 07:01:43;;;;;;;27.15;13.20;;;;;;;;;;5075199;28;20124;-59
2023/10/20 07:04:13;;;;;;;52.60;14.50;;;;;;;;;;5075647;28;20044;-59
2023/10/20 07:06:41;;;;;;;23.92;14.40;;;;;;;;;;5075407;28;20041;-60
2023/10/20 07:09:13;;;;;;;27.67;13.15;;;;;;;;;;5075283;28;20044;-60
2023/10/20 07:11:42;;;;;;;28.70;13.10;;;;;;;;;;5075019;28;20048;-60
2023/10/20 07:14:10;;;;;;;23.83;12.98;;;;;;;;;;5075210;28;20446;-60
2023/10/20 07:16:38;;;;;;;24.80;13.00;;;;;;;;;;5075127;28;20043;-59
2023/10/20 07:19:06;;;;;;;23.17;13.95;;;;;;;;;;5075173;28;20072;-60
2023/10/20 07:21:34;;;;;;;24.60;13.85;;;;;;;;;;5075016;28;20044;-60
2023/10/20 07:24:03;;;;;;;25.25;12.95;;;;;;;;;;5075020;28;20040;-60
2023/10/20 07:26:30;;;;;;;24.05;13.05;;;;;;;;;;5075127;28;20040;-60
2023/10/20 07:28:58;;;;;;;25.98;13.70;;;;;;;;;;5074991;28;20036;-60
2023/10/20 07:31:26;;;;;;;22.25;12.98;;;;;;;;;;5074435;28;20071;-60
2023/10/20 07:33:56;;;;;;;25.77;13.00;;;;;;;;;;5074741;28;20041;-60
2023/10/20 07:36:23;;;;;;;25.83;12.98;;;;;;;;;;5073560;28;20082;-60
2023/10/20 07:38:51;;;;;;;21.35;13.07;;;;;;;;;;5074686;28;20037;-60
2023/10/20 07:41:19;;;;;;;24.77;11.95;;;;;;;;;;5074687;28;20040;-60
2023/10/20 07:43:46;;;;;;;18.27;10.60;;;;;;;;;;5074752;28;20041;-60
2023/10/20 07:46:14;;;;;;;20.88;10.65;;;;;;;;;;5073302;28;20132;-58
2023/10/20 07:48:42;;;;;;;18.63;10.70;;;;;;;;;;5074482;28;20076;-59
2023/10/20 07:51:10;;;;;;;18.70;11.18;;;;;;;;;;5074724;28;20110;-59
2023/10/20 07:53:37;;;;;;;19.15;10.85;;;;;;;;;;5074533;28;20406;-59
2023/10/20 07:56:05;;;;;;;19.77;10.98;;;;;;;;;;5074678;28;20049;-59
2023/10/20 07:58:33;;;;;;;18.73;10.45;;;;;;;;;;5073087;28;20496;-59
2023/10/20 08:01:01;;;;;;;16.95;9.40;;;;;;;;;;5074289;28;20095;-60
2023/10/20 08:03:28;;;;;;;19.35;10.13;;;;;;;;;;5074237;28;20602;-59
2023/10/20 08:05:56;;;;;;;19.38;8.50;;;;;;;;;;5074091;28;20140;-60
2023/10/20 08:08:24;;;;;;;13.52;8.43;;;;;;;;;;5074194;28;20064;-60
2023/10/20 08:10:52;;;;;;;13.00;7.53;;;;;;;;;;5074097;28;20045;-60
2023/10/20 08:13:19;;;;;;;16.67;8.05;;;;;;;;;;5073919;28;20047;-60
2023/10/20 08:15:47;;;;;;;14.38;8.60;;;;;;;;;;5074157;28;20123;-60
2023/10/20 08:18:16;;;;;;;18.88;8.48;;;;;;;;;;5074279;28;20440;-60
2023/10/20 08:20:44;;;;;;;15.63;8.40;;;;;;;;;;5073965;28;20040;-60
2023/10/20 08:23:11;;;;;;;11.65;6.88;;;;;;;;;;5073914;28;20124;-60
2023/10/20 08:25:39;;;;;;;11.55;6.50;;;;;;;;;;5073775;28;20067;-60
2023/10/20 08:28:07;;;;;;;15.65;7.03;;;;;;;;;;5073790;28;20037;-60
2023/10/20 08:30:35;;;;;;;12.95;6.47;;;;;;;;;;5073579;28;20116;-60
2023/10/20 08:33:03;;;;;;;20.00;6.82;;;;;;;;;;5073727;28;20044;-61
2023/10/20 08:35:31;;;;;;;12.60;7.45;;;;;;;;;;5073665;28;20093;-60
2023/10/20 08:37:59;;;;;;;11.45;6.60;;;;;;;;;;5073492;28;20497;-61
2023/10/20 08:40:32;;;;;;;11.23;6.43;;;;;;;;;;5073637;28;20053;-61
2023/10/20 08:43:13;;;;;;;12.68;6.35;;;;;;;;;;5073300;28;20499;-61
2023/10/20 08:45:41;;;;;;;10.68;6.65;;;;;;;;;;5073262;28;20489;-60
2023/10/20 08:48:08;;;;;;;8.68;5.93;;;;;;;;;;5073368;28;20115;-60
2023/10/20 08:50:37;;;;;;;11.05;6.20;;;;;;;;;;5073341;28;20538;-61
2023/10/20 08:53:04;;;;;;;12.82;6.22;;;;;;;;;;5073097;28;20448;-61
2023/10/20 08:55:32;;;;;;;12.75;6.68;;;;;;;;;;5071992;28;20052;-61
2023/10/20 08:57:59;;;;;;;13.48;6.70;;;;;;;;;;5073032;28;20040;-61
2023/10/20 09:00:30;;;;;;;12.07;6.57;;;;;;;;;;5071813;28;20049;-61
2023/10/20 09:02:59;;;;;;;9.13;6.00;;;;;;;;;;5072949;28;20063;-61
2023/10/20 09:05:27;;;;;;;11.55;6.22;;;;;;;;;;5072934;28;20040;-61
2023/10/20 09:07:56;;;;;;;12.00;5.95;;;;;;;;;;5072952;28;20044;-61
2023/10/20 09:10:24;;;;;;;14.57;6.13;;;;;;;;;;5072770;28;20040;-61
2023/10/20 09:12:52;;;;;;;12.20;5.88;;;;;;;;;;5072845;28;20123;-61
2023/10/20 09:15:19;;;;;;;10.88;5.95;;;;;;;;;;5073314;28;20130;-60
2023/10/20 09:17:56;;;;;;;14.70;5.70;;;;;;;;;;5072867;28;20061;-60
2023/10/20 09:20:25;;;;;;;14.80;7.32;;;;;;;;;;5073131;28;20395;-60
2023/10/20 09:22:53;;;;;;;15.50;5.95;;;;;;;;;;5072759;28;20087;-60
2023/10/20 09:25:21;;;;;;;9.18;5.10;;;;;;;;;;5072904;28;20041;-60
2023/10/20 09:27:48;;;;;;;12.98;5.78;;;;;;;;;;5072800;28;20067;-61
2023/10/20 09:30:16;;;;;;;11.50;5.88;;;;;;;;;;5072631;28;20131;-60
2023/10/20 09:32:44;;;;;;;27.48;7.50;;;;;;;;;;5072998;28;20041;-60
2023/10/20 09:35:11;;;;;;;13.02;6.47;;;;;;;;;;5072537;28;20557;-61
2023/10/20 09:37:40;;;;;;;16.75;9.07;;;;;;;;;;5072716;28;20037;-60
2023/10/20 09:40:09;;;;;;;13.63;6.70;;;;;;;;;;5071510;28;20033;-60
2023/10/20 09:42:57;;;;;;;15.30;6.93;;;;;;;;;;5072654;28;20068;-60
2023/10/20 09:45:37;;;;;;;14.65;7.03;;;;;;;;;;5072638;28;20123;-60
2023/10/20 09:48:08;;;;;;;15.02;7.45;;;;;;;;;;5072527;28;20059;-60
2023/10/20 09:50:37;;;;;;;14.88;7.88;;;;;;;;;;5072542;28;20040;-60
2023/10/20 09:53:05;;;;;;;22.40;8.55;;;;;;;;;;5071127;28;20440;-61
2023/10/20 09:55:33;;;;;;;14.93;8.13;;;;;;;;;;5072259;28;20051;-60
2023/10/20 09:58:00;;;;;;;26.98;13.82;;;;;;;;;;5072498;28;20486;-60
2023/10/20 10:00:29;;;;;;;16.67;10.23;;;;;;;;;;5071261;28;20094;-60
2023/10/20 10:02:59;;;;;;;19.55;6.93;;;;;;;;;;5081891;28;20032;-59
2023/10/20 10:05:27;;;;;;;15.55;7.85;;;;;;;;;;5082279;28;20040;-57
2023/10/20 10:08:08;;;;;;;22.67;10.10;;;;;;;;;;5082261;28;20041;-57
2023/10/20 10:10:36;;;;;;;11.30;5.07;;;;;;;;;;5058931;28;20044;-58
2023/10/20 10:13:05;;;;;;;9.60;4.95;;;;;;;;;;5087265;28;20473;-59
2023/10/20 10:15:39;;;;;;;10.05;5.18;;;;;;;;;;5076210;28;20077;-59
2023/10/20 10:18:11;;;;;;;8.32;4.50;;;;;;;;;;5072616;28;20044;-59
2023/10/20 10:20:47;;;;;;;12.65;5.22;;;;;;;;;;5082867;28;20419;-59
2023/10/20 10:23:15;;;;;;;11.07;5.47;;;;;;;;;;5082132;28;20044;-59
2023/10/20 10:25:44;;;;;;;18.00;5.80;;;;;;;;;;5078914;28;20044;-58
2023/10/20 10:28:19;;;;;;;15.27;6.22;;;;;;;;;;5090011;28;20046;-59
2023/10/20 10:30:52;;;;;;;15.00;5.60;;;;;;;;;;5079703;28;20075;-59
2023/10/20 10:33:23;;;;;;;18.15;6.15;;;;;;;;;;5074197;28;20071;-59
2023/10/20 10:36:03;;;;;;;13.40;5.63;;;;;;;;;;5076220;28;20553;-59
2023/10/20 10:38:42;;;;;;;14.60;5.20;;;;;;;;;;5070966;28;20048;-59
2023/10/20 10:41:10;;;;;;;12.25;4.65;;;;;;;;;;5089676;28;20513;-59
2023/10/20 10:43:37;;;;;;;9.70;4.43;;;;;;;;;;5090851;28;20033;-59
2023/10/20 10:46:05;;;;;;;12.90;4.53;;;;;;;;;;5092194;28;20493;-59
2023/10/20 10:48:35;;;;;;;8.98;5.07;;;;;;;;;;5092100;28;20079;-59
2023/10/20 10:51:05;;;;;;;13.13;4.75;;;;;;;;;;5091931;28;20051;-59
2023/10/20 10:53:33;;;;;;;11.38;4.70;;;;;;;;;;5091794;28;20063;-58
2023/10/20 10:56:02;;;;;;;15.93;5.20;;;;;;;;;;5090621;28;20048;-59
2023/10/20 10:58:30;;;;;;;13.40;4.47;;;;;;;;;;5091929;28;20477;-59
2023/10/20 11:00:58;;;;;;;10.15;5.32;;;;;;;;;;5090412;28;20036;-58
2023/10/20 11:03:26;;;;;;;16.55;5.10;;;;;;;;;;5084234;28;20040;-59
2023/10/20 11:05:54;;;;;;;17.25;5.57;;;;;;;;;;5080662;28;20051;-59
2023/10/20 11:08:22;;;;;;;13.48;4.90;;;;;;;;;;5094376;28;20051;-59
2023/10/20 11:10:50;;;;;;;17.10;7.55;;;;;;;;;;5095238;28;20490;-59
2023/10/20 11:13:20;;;;;;;15.13;6.88;;;;;;;;;;5095118;28;20072;-58
2023/10/20 11:15:48;;;;;;;10.18;5.03;;;;;;;;;;5095086;28;20044;-58
2023/10/20 11:18:18;;;;;;;9.98;4.70;;;;;;;;;;5095018;28;20040;-58
2023/10/20 11:20:49;;;;;;;11.50;4.25;;;;;;;;;;5095128;28;20044;-59
2023/10/20 11:23:19;;;;;;;12.60;4.20;;;;;;;;;;5091200;28;20040;-58
2023/10/20 11:25:49;;;;;;;13.55;4.25;;;;;;;;;;5081519;28;20047;-58
2023/10/20 11:28:17;;;;;;;8.85;4.10;;;;;;;;;;5095008;28;20036;-59
2023/10/20 11:30:45;;;;;;;11.55;4.03;;;;;;;;;;5094979;28;20408;-58
2023/10/20 11:33:15;;;;;;;13.27;5.63;;;;;;;;;;5095221;28;20089;-58
2023/10/20 11:35:45;;;;;;;10.93;4.28;;;;;;;;;;5090350;28;20040;-57
2023/10/20 11:38:16;;;;;;;9.88;4.45;;;;;;;;;;5089810;28;20071;-59
2023/10/20 11:40:47;;;;;;;11.30;4.95;;;;;;;;;;5093239;28;20047;-58
2023/10/20 11:43:15;;;;;;;9.52;4.32;;;;;;;;;;5092870;28;20397;-57
2023/10/20 11:45:42;;;;;;;17.70;4.82;;;;;;;;;;5094776;28;20043;-58
2023/10/20 11:48:10;;;;;;;9.15;4.60;;;;;;;;;;5094458;28;20071;-58
2023/10/20 11:50:37;;;;;;;11.68;4.20;;;;;;;;;;5094706;28;20119;-59
2023/10/20 11:53:05;;;;;;;9.05;4.25;;;;;;;;;;5088502;28;20048;-58
2023/10/20 11:55:33;;;;;;;13.70;4.97;;;;;;;;;;5086850;28;20492;-58
2023/10/20 11:58:03;;;;;;;17.40;5.18;;;;;;;;;;5091478;28;20401;-58
2023/10/20 12:00:31;;;;;;;13.35;4.68;;;;;;;;;;5081778;28;20106;-69
2023/10/20 12:02:58;;;;;;;8.13;4.28;;;;;;;;;;5074199;28;20066;-59
2023/10/20 12:05:26;;;;;;;15.23;5.45;;;;;;;;;;5074139;28;20048;-58
2023/10/20 12:07:54;;;;;;;10.23;4.18;;;;;;;;;;5073865;28;20044;-58
2023/10/20 12:10:23;;;;;;;9.30;4.50;;;;;;;;;;5089703;28;20074;-59
2023/10/20 12:12:51;;;;;;;14.75;5.07;;;;;;;;;;5094178;28;20433;-59
2023/10/20 12:15:19;;;;;;;13.88;5.47;;;;;;;;;;5093087;28;20393;-60
2023/10/20 12:17:46;;;;;;;11.15;4.40;;;;;;;;;;5094011;28;20052;-60
2023/10/20 12:20:15;;;;;;;14.43;4.15;;;;;;;;;;5093905;28;20036;-60
2023/10/20 12:22:43;;;;;;;8.23;4.00;;;;;;;;;;5092596;28;20036;-59
2023/10/20 12:25:10;;;;;;;10.63;4.00;;;;;;;;;;5093838;28;20071;-61
2023/10/20 12:27:38;;;;;;;16.75;5.25;;;;;;;;;;5093837;28;20089;-60
2023/10/20 12:30:06;;;;;;;11.43;4.35;;;;;;;;;;5093916;28;20379;-62
2023/10/20 12:32:33;;;;;;;14.23;4.78;;;;;;;;;;5093717;28;20046;-60
2023/10/20 12:35:01;;;;;;;13.77;4.82;;;;;;;;;;5092607;28;20043;-60
2023/10/20 12:37:29;;;;;;;12.13;4.25;;;;;;;;;;5092491;28;20496;-59
2023/10/20 12:39:59;;;;;;;17.45;4.88;;;;;;;;;;5093778;28;20105;-59
2023/10/20 12:42:27;;;;;;;11.50;4.95;;;;;;;;;;5094056;28;20050;-63
2023/10/20 12:44:55;;;;;;;16.75;4.20;;;;;;;;;;5093664;28;20397;-61
2023/10/20 12:47:23;;;;;;;13.05;4.15;;;;;;;;;;5092247;28;20427;-59
2023/10/20 12:49:54;;;;;;;11.32;4.10;;;;;;;;;;5093660;28;20036;-60
2023/10/20 12:52:22;;;;;;;15.85;5.10;;;;;;;;;;5093079;28;20064;-59
2023/10/20 12:54:51;;;;;;;19.20;5.20;;;;;;;;;;5093334;28;20058;-59
2023/10/20 12:57:20;;;;;;;12.52;4.47;;;;;;;;;;5093802;28;20379;-59
2023/10/20 12:59:47;;;;;;;15.23;4.40;;;;;;;;;;5092002;28;20075;-62
2023/10/20 13:02:15;;;;;;;9.52;4.10;;;;;;;;;;5091252;28;20044;-59
2023/10/20 13:04:43;;;;;;;16.13;6.00;;;;;;;;;;5092574;28;20036;-59
2023/10/20 13:07:10;;;;;;;10.13;4.80;;;;;;;;;;5085726;28;20115;-59
2023/10/20 13:09:41;;;;;;;14.43;8.05;;;;;;;;;;5082386;28;20451;-60
2023/10/20 13:12:08;;;;;;;13.88;6.60;;;;;;;;;;5080601;28;20474;-60
2023/10/20 13:14:36;;;;;;;19.27;11.70;;;;;;;;;;5080895;28;20044;-59
2023/10/20 13:17:04;;;;;;;19.55;8.25;;;;;;;;;;5083458;28;20059;-59
2023/10/20 13:19:32;;;;;;;11.07;5.47;;;;;;;;;;5083327;28;20054;-58
2023/10/20 13:22:00;;;;;;;14.93;6.65;;;;;;;;;;5079662;28;20036;-58
2023/10/20 13:24:28;;;;;;;18.25;7.05;;;;;;;;;;5090885;28;20545;-59
2023/10/20 13:26:55;;;;;;;18.42;10.05;;;;;;;;;;5092940;28;20040;-65
2023/10/20 13:29:23;;;;;;;22.45;6.82;;;;;;;;;;5092841;28;20086;-61
2023/10/20 13:31:51;;;;;;;28.75;12.07;;;;;;;;;;5092677;28;20033;-59
2023/10/20 13:34:19;;;;;;;36.60;22.75;;;;;;;;;;5092890;28;20093;-59
2023/10/20 13:36:47;;;;;;;14.38;8.10;;;;;;;;;;5092854;28;20486;-62
2023/10/20 13:39:16;;;;;;;10.07;6.10;;;;;;;;;;5092674;28;20052;-65
2023/10/20 13:41:57;;;;;;;18.85;6.45;;;;;;;;;;5092774;28;20040;-64
2023/10/20 13:44:24;;;;;;;15.93;4.68;;;;;;;;;;5078724;28;20110;-58
2023/10/20 13:46:53;;;;;;;15.88;6.20;;;;;;;;;;5072613;28;20102;-59
2023/10/20 13:49:20;;;;;;;8.63;5.45;;;;;;;;;;5072705;28;20119;-58
2023/10/20 13:51:48;;;;;;;15.32;6.25;;;;;;;;;;5072498;28;20207;-59
2023/10/20 13:54:15;;;;;;;15.93;6.28;;;;;;;;;;5072158;28;20494;-58
2023/10/20 13:56:43;;;;;;;16.98;5.72;;;;;;;;;;5072357;28;20045;-58
2023/10/20 13:59:10;;;;;;;12.43;4.43;;;;;;;;;;5072304;28;20044;-58
2023/10/20 14:01:41;;;;;;;12.82;4.45;;;;;;;;;;5072231;28;20044;-58
2023/10/20 14:04:09;;;;;;;14.95;5.53;;;;;;;;;;5071030;28;20475;-58
2023/10/20 14:06:37;;;;;;;18.50;5.75;;;;;;;;;;5072105;28;20090;-59
2023/10/20 14:09:04;;;;;;;14.70;5.78;;;;;;;;;;5072056;28;20102;-59
2023/10/20 14:11:32;;;;;;;17.60;5.68;;;;;;;;;;5070892;28;20106;-59
2023/10/20 14:14:00;;;;;;;15.95;5.85;;;;;;;;;;5071180;28;20067;-60
2023/10/20 14:16:28;;;;;;;18.42;7.20;;;;;;;;;;5072151;28;20043;-59
2023/10/20 14:18:56;;;;;;;16.15;5.55;;;;;;;;;;5072068;28;20041;-59
2023/10/20 14:21:23;;;;;;;19.95;5.97;;;;;;;;;;5072101;28;20075;-59
2023/10/20 14:23:51;;;;;;;14.00;6.32;;;;;;;;;;5072602;28;20121;-59
2023/10/20 14:26:19;;;;;;;20.13;7.68;;;;;;;;;;5071567;28;20052;-59
2023/10/20 14:28:46;;;;;;;21.65;7.32;;;;;;;;;;5071238;28;20037;-59
2023/10/20 14:31:14;;;;;;;21.83;7.35;;;;;;;;;;5070164;28;20401;-59
2023/10/20 14:33:41;;;;;;;21.10;8.98;;;;;;;;;;5070769;28;20033;-59
2023/10/20 14:36:13;;;;;;;31.25;9.43;;;;;;;;;;5070611;28;20040;-59
2023/10/20 14:38:41;;;;;;;27.13;10.27;;;;;;;;;;5071101;28;20044;-59
2023/10/20 14:41:09;;;;;;;24.15;9.68;;;;;;;;;;5071581;28;20402;-59
2023/10/20 14:43:39;;;;;;;30.42;9.90;;;;;;;;;;5075062;28;20447;-60
2023/10/20 14:46:08;;;;;;;22.50;9.27;;;;;;;;;;5075500;28;20052;-59
2023/10/20 14:48:36;;;;;;;28.17;9.80;;;;;;;;;;5075888;28;20045;-59
2023/10/20 14:51:08;;;;;;;31.13;10.30;;;;;;;;;;5075883;28;20109;-59
2023/10/20 14:53:36;;;;;;;33.10;11.15;;;;;;;;;;5057609;28;20417;-59
2023/10/20 14:56:04;;;;;;;37.65;11.68;;;;;;;;;;5075653;28;20177;-60